sensor_id;sensor_type;location;lat;lon;timestamp;temperature;humidity
2973;DHT22;1496;51.404;7.232;2023-05-23T00:01:47;15.00;1.00
2973;DHT22;1496;51.404;7.232;2023-05-23T00:04:14;15.00;1.00
2973;DHT22;1496;51.404;7.232;2023-05-23T00:06:45;14.90;1.00
2973;DHT22;1496;51.404;7.232;2023-05-23T00:09:13;14.90;1.00
2973;DHT22;1496;51.404;7.232;2023-05-23T00:11:41;14.90;1.00
2973;DHT22;1496;51.404;7.232;2023-05-23T00:14:11;15.00;1.00
2973;DHT22;1496;51.404;7.232;2023-05-23T00:16:42;14.90;1.00
2973;DHT22;1496;51.404;7.232;2023-05-23T00:19:11;14.90;99.90
2973;DHT22;1496;51.404;7.232;2023-05-23T00:21:40;14.90;1.00
2973;DHT22;1496;51.404;7.232;2023-05-23T00:24:09;14.90;99.90
2973;DHT22;1496;51.404;7.232;2023-05-23T00:26:35;14.70;99.90
2973;DHT22;1496;51.404;7.232;2023-05-23T00:29:02;14.70;99.90
2973;DHT22;1496;51.404;7.232;2023-05-23T00:31:29;14.70;99.90
2973;DHT22;1496;51.404;7.232;2023-05-23T00:33:57;14.70;99.90
2973;DHT22;1496;51.404;7.232;2023-05-23T00:36:23;14.70;99.90
2973;DHT22;1496;51.404;7.232;2023-05-23T00:38:51;14.60;99.90
2973;DHT22;1496;51.404;7.232;2023-05-23T00:41:18;14.60;99.90
2973;DHT22;1496;51.404;7.232;2023-05-23T00:43:47;14.50;99.90
2973;DHT22;1496;51.404;7.232;2023-05-23T00:46:14;14.50;99.90
2973;DHT22;1496;51.404;7.232;2023-05-23T00:48:42;14.40;99.90
2973;DHT22;1496;51.404;7.232;2023-05-23T00:51:08;14.40;99.90
2973;DHT22;1496;51.404;7.232;2023-05-23T00:53:35;14.40;99.90
2973;DHT22;1496;51.404;7.232;2023-05-23T00:56:04;14.30;99.90
2973;DHT22;1496;51.404;7.232;2023-05-23T00:58:34;14.30;99.90
2973;DHT22;1496;51.404;7.232;2023-05-23T01:01:00;14.30;99.90
2973;DHT22;1496;51.404;7.232;2023-05-23T01:03:27;14.30;99.90
2973;DHT22;1496;51.404;7.232;2023-05-23T01:05:55;14.30;99.90
2973;DHT22;1496;51.404;7.232;2023-05-23T01:08:22;14.30;99.90
2973;DHT22;1496;51.404;7.232;2023-05-23T01:10:50;14.40;99.90
2973;DHT22;1496;51.404;7.232;2023-05-23T01:13:21;14.40;99.90
2973;DHT22;1496;51.404;7.232;2023-05-23T01:16:04;14.40;99.90
2973;DHT22;1496;51.404;7.232;2023-05-23T01:18:38;14.40;99.90
2973;DHT22;1496;51.404;7.232;2023-05-23T01:21:17;14.20;99.90
2973;DHT22;1496;51.404;7.232;2023-05-23T01:29:06;14.30;99.90
2973;DHT22;1496;51.404;7.232;2023-05-23T01:31:38;14.30;99.90
2973;DHT22;1496;51.404;7.232;2023-05-23T01:34:07;14.40;99.90
2973;DHT22;1496;51.404;7.232;2023-05-23T01:36:42;14.40;93.20
2973;DHT22;1496;51.404;7.232;2023-05-23T01:39:08;14.40;84.90
2973;DHT22;1496;51.404;7.232;2023-05-23T01:41:36;14.40;97.80
2973;DHT22;1496;51.404;7.232;2023-05-23T01:44:02;14.40;84.20
2973;DHT22;1496;51.404;7.232;2023-05-23T01:46:35;14.50;93.90
2973;DHT22;1496;51.404;7.232;2023-05-23T01:49:08;14.50;93.20
2973;DHT22;1496;51.404;7.232;2023-05-23T01:51:36;14.50;95.30
2973;DHT22;1496;51.404;7.232;2023-05-23T01:54:04;14.50;99.90
2973;DHT22;1496;51.404;7.232;2023-05-23T01:56:32;14.50;99.90
2973;DHT22;1496;51.404;7.232;2023-05-23T01:59:01;14.50;99.90
2973;DHT22;1496;51.404;7.232;2023-05-23T02:01:29;14.40;99.90
2973;DHT22;1496;51.404;7.232;2023-05-23T02:03:57;14.50;99.90
2973;DHT22;1496;51.404;7.232;2023-05-23T02:06:25;14.40;95.40
2973;DHT22;1496;51.404;7.232;2023-05-23T02:08:51;14.40;99.90
2973;DHT22;1496;51.404;7.232;2023-05-23T02:11:18;14.40;96.80
2973;DHT22;1496;51.404;7.232;2023-05-23T02:13:44;14.40;99.90
2973;DHT22;1496;51.404;7.232;2023-05-23T02:16:12;14.50;97.90
2973;DHT22;1496;51.404;7.232;2023-05-23T02:18:39;14.40;90.00
2973;DHT22;1496;51.404;7.232;2023-05-23T02:21:07;14.40;90.90
2973;DHT22;1496;51.404;7.232;2023-05-23T02:23:36;14.40;96.70
2973;DHT22;1496;51.404;7.232;2023-05-23T02:26:02;14.50;94.30
2973;DHT22;1496;51.404;7.232;2023-05-23T02:28:29;14.50;93.80
2973;DHT22;1496;51.404;7.232;2023-05-23T02:30:57;14.50;84.70
2973;DHT22;1496;51.404;7.232;2023-05-23T02:33:24;14.50;98.00
2973;DHT22;1496;51.404;7.232;2023-05-23T02:35:51;14.50;78.20
2973;DHT22;1496;51.404;7.232;2023-05-23T02:38:18;14.50;67.40
2973;DHT22;1496;51.404;7.232;2023-05-23T02:40:46;14.40;75.10
2973;DHT22;1496;51.404;7.232;2023-05-23T02:43:16;14.40;92.10
2973;DHT22;1496;51.404;7.232;2023-05-23T02:45:44;14.40;96.60
2973;DHT22;1496;51.404;7.232;2023-05-23T02:48:12;14.50;99.90
2973;DHT22;1496;51.404;7.232;2023-05-23T02:50:40;14.50;99.90
2973;DHT22;1496;51.404;7.232;2023-05-23T02:53:06;14.50;99.90
2973;DHT22;1496;51.404;7.232;2023-05-23T02:55:33;14.40;99.90
2973;DHT22;1496;51.404;7.232;2023-05-23T02:58:00;14.50;99.90
2973;DHT22;1496;51.404;7.232;2023-05-23T03:00:28;14.40;99.90
2973;DHT22;1496;51.404;7.232;2023-05-23T03:02:56;14.40;99.90
2973;DHT22;1496;51.404;7.232;2023-05-23T03:05:23;14.30;99.90
2973;DHT22;1496;51.404;7.232;2023-05-23T03:07:49;14.40;99.90
2973;DHT22;1496;51.404;7.232;2023-05-23T03:10:17;14.40;99.90
2973;DHT22;1496;51.404;7.232;2023-05-23T03:12:45;14.40;99.90
2973;DHT22;1496;51.404;7.232;2023-05-23T03:15:13;14.40;99.90
2973;DHT22;1496;51.404;7.232;2023-05-23T03:17:42;14.40;99.90
2973;DHT22;1496;51.404;7.232;2023-05-23T03:20:10;14.40;99.90
2973;DHT22;1496;51.404;7.232;2023-05-23T03:22:38;14.40;99.90
2973;DHT22;1496;51.404;7.232;2023-05-23T03:25:06;14.40;99.90
2973;DHT22;1496;51.404;7.232;2023-05-23T03:27:33;14.40;99.90
2973;DHT22;1496;51.404;7.232;2023-05-23T03:30:01;14.40;99.90
2973;DHT22;1496;51.404;7.232;2023-05-23T03:32:28;14.50;99.90
2973;DHT22;1496;51.404;7.232;2023-05-23T03:34:55;14.40;90.50
2973;DHT22;1496;51.404;7.232;2023-05-23T03:37:26;14.40;97.80
2973;DHT22;1496;51.404;7.232;2023-05-23T03:39:53;14.40;70.50
2973;DHT22;1496;51.404;7.232;2023-05-23T03:42:20;14.40;76.40
2973;DHT22;1496;51.404;7.232;2023-05-23T03:44:48;14.30;76.20
2973;DHT22;1496;51.404;7.232;2023-05-23T03:47:15;14.30;91.90
2973;DHT22;1496;51.404;7.232;2023-05-23T03:49:44;14.40;80.80
2973;DHT22;1496;51.404;7.232;2023-05-23T03:52:14;14.30;74.00
2973;DHT22;1496;51.404;7.232;2023-05-23T03:54:42;14.30;74.10
2973;DHT22;1496;51.404;7.232;2023-05-23T03:57:10;14.30;83.80
2973;DHT22;1496;51.404;7.232;2023-05-23T03:59:37;14.30;90.50
2973;DHT22;1496;51.404;7.232;2023-05-23T04:02:08;14.30;91.10
2973;DHT22;1496;51.404;7.232;2023-05-23T04:04:40;14.20;70.30
2973;DHT22;1496;51.404;7.232;2023-05-23T04:07:06;14.20;84.30
2973;DHT22;1496;51.404;7.232;2023-05-23T04:09:35;14.30;94.60
2973;DHT22;1496;51.404;7.232;2023-05-23T04:12:04;14.20;99.90
2973;DHT22;1496;51.404;7.232;2023-05-23T04:14:35;14.20;99.90
2973;DHT22;1496;51.404;7.232;2023-05-23T04:17:02;14.30;99.90
2973;DHT22;1496;51.404;7.232;2023-05-23T04:19:29;14.30;99.90
2973;DHT22;1496;51.404;7.232;2023-05-23T04:21:56;14.10;99.90
2973;DHT22;1496;51.404;7.232;2023-05-23T04:24:28;14.20;99.90
2973;DHT22;1496;51.404;7.232;2023-05-23T04:26:54;14.20;99.90
2973;DHT22;1496;51.404;7.232;2023-05-23T04:29:22;14.20;99.90
2973;DHT22;1496;51.404;7.232;2023-05-23T04:31:51;14.10;99.90
2973;DHT22;1496;51.404;7.232;2023-05-23T04:34:18;14.10;99.90
2973;DHT22;1496;51.404;7.232;2023-05-23T04:36:48;14.10;99.90
2973;DHT22;1496;51.404;7.232;2023-05-23T04:39:15;13.90;99.90
2973;DHT22;1496;51.404;7.232;2023-05-23T04:41:57;13.90;99.90
2973;DHT22;1496;51.404;7.232;2023-05-23T04:44:45;14.00;99.90
2973;DHT22;1496;51.404;7.232;2023-05-23T04:47:18;14.00;99.90
2973;DHT22;1496;51.404;7.232;2023-05-23T04:50:16;14.00;99.90
2973;DHT22;1496;51.404;7.232;2023-05-23T04:52:45;13.90;99.90
2973;DHT22;1496;51.404;7.232;2023-05-23T04:55:12;13.90;99.90
2973;DHT22;1496;51.404;7.232;2023-05-23T04:57:38;13.80;99.90
2973;DHT22;1496;51.404;7.232;2023-05-23T05:00:07;13.90;99.90
2973;DHT22;1496;51.404;7.232;2023-05-23T05:02:38;13.90;99.90
2973;DHT22;1496;51.404;7.232;2023-05-23T05:05:07;14.00;99.90
2973;DHT22;1496;51.404;7.232;2023-05-23T05:07:38;14.00;99.90
2973;DHT22;1496;51.404;7.232;2023-05-23T05:10:07;14.10;99.90
2973;DHT22;1496;51.404;7.232;2023-05-23T05:12:34;14.10;99.90
2973;DHT22;1496;51.404;7.232;2023-05-23T05:15:03;14.10;99.90
2973;DHT22;1496;51.404;7.232;2023-05-23T05:17:31;14.10;99.90
2973;DHT22;1496;51.404;7.232;2023-05-23T05:20:05;14.10;99.90
2973;DHT22;1496;51.404;7.232;2023-05-23T05:22:39;14.00;99.90
2973;DHT22;1496;51.404;7.232;2023-05-23T05:25:09;14.10;99.90
2973;DHT22;1496;51.404;7.232;2023-05-23T05:27:38;14.20;99.90
2973;DHT22;1496;51.404;7.232;2023-05-23T05:30:08;14.10;99.90
2973;DHT22;1496;51.404;7.232;2023-05-23T05:32:50;14.10;99.90
2973;DHT22;1496;51.404;7.232;2023-05-23T05:35:18;14.00;99.90
2973;DHT22;1496;51.404;7.232;2023-05-23T05:37:45;14.10;99.90
2973;DHT22;1496;51.404;7.232;2023-05-23T05:40:12;14.10;99.90
2973;DHT22;1496;51.404;7.232;2023-05-23T05:42:41;14.10;99.90
2973;DHT22;1496;51.404;7.232;2023-05-23T05:45:09;14.10;99.90
2973;DHT22;1496;51.404;7.232;2023-05-23T05:47:39;14.10;99.90
2973;DHT22;1496;51.404;7.232;2023-05-23T05:50:06;14.10;99.90
2973;DHT22;1496;51.404;7.232;2023-05-23T05:52:36;14.10;99.90
2973;DHT22;1496;51.404;7.232;2023-05-23T05:55:07;14.00;99.90
2973;DHT22;1496;51.404;7.232;2023-05-23T05:57:37;14.20;99.90
2973;DHT22;1496;51.404;7.232;2023-05-23T06:00:11;14.20;99.90
2973;DHT22;1496;51.404;7.232;2023-05-23T06:02:55;14.30;99.90
2973;DHT22;1496;51.404;7.232;2023-05-23T06:05:44;14.20;99.90
2973;DHT22;1496;51.404;7.232;2023-05-23T06:08:11;14.10;99.90
2973;DHT22;1496;51.404;7.232;2023-05-23T06:10:38;14.10;99.90
2973;DHT22;1496;51.404;7.232;2023-05-23T06:13:06;14.10;99.90
2973;DHT22;1496;51.404;7.232;2023-05-23T06:15:33;14.10;99.90
2973;DHT22;1496;51.404;7.232;2023-05-23T06:17:59;13.90;98.20
2973;DHT22;1496;51.404;7.232;2023-05-23T06:20:26;14.00;99.90
2973;DHT22;1496;51.404;7.232;2023-05-23T06:22:54;14.10;99.90
2973;DHT22;1496;51.404;7.232;2023-05-23T06:25:21;14.10;99.90
2973;DHT22;1496;51.404;7.232;2023-05-23T06:27:47;14.10;99.90
2973;DHT22;1496;51.404;7.232;2023-05-23T06:30:15;14.20;82.10
2973;DHT22;1496;51.404;7.232;2023-05-23T06:32:42;14.10;92.10
2973;DHT22;1496;51.404;7.232;2023-05-23T06:35:09;14.20;89.30
2973;DHT22;1496;51.404;7.232;2023-05-23T06:37:35;14.30;85.80
2973;DHT22;1496;51.404;7.232;2023-05-23T06:40:02;14.20;75.20
2973;DHT22;1496;51.404;7.232;2023-05-23T06:42:31;14.20;56.70
2973;DHT22;1496;51.404;7.232;2023-05-23T06:45:09;14.20;54.00
2973;DHT22;1496;51.404;7.232;2023-05-23T06:47:35;14.20;65.70
2973;DHT22;1496;51.404;7.232;2023-05-23T06:50:08;14.20;53.60
2973;DHT22;1496;51.404;7.232;2023-05-23T06:52:35;14.20;43.10
2973;DHT22;1496;51.404;7.232;2023-05-23T06:55:02;14.20;39.60
2973;DHT22;1496;51.404;7.232;2023-05-23T06:57:30;14.20;45.60
2973;DHT22;1496;51.404;7.232;2023-05-23T06:59:58;14.30;45.00
2973;DHT22;1496;51.404;7.232;2023-05-23T07:02:25;14.20;45.50
2973;DHT22;1496;51.404;7.232;2023-05-23T07:04:51;14.20;36.90
2973;DHT22;1496;51.404;7.232;2023-05-23T07:07:41;14.20;19.70
2973;DHT22;1496;51.404;7.232;2023-05-23T07:10:09;14.10;10.10
2973;DHT22;1496;51.404;7.232;2023-05-23T07:12:36;14.00;1.30
2973;DHT22;1496;51.404;7.232;2023-05-23T07:15:04;14.00;1.00
2973;DHT22;1496;51.404;7.232;2023-05-23T07:17:31;13.90;1.00
2973;DHT22;1496;51.404;7.232;2023-05-23T07:20:00;13.90;1.00
2973;DHT22;1496;51.404;7.232;2023-05-23T07:22:30;13.90;1.00
2973;DHT22;1496;51.404;7.232;2023-05-23T07:24:56;13.90;1.00
2973;DHT22;1496;51.404;7.232;2023-05-23T07:27:28;14.00;1.00
2973;DHT22;1496;51.404;7.232;2023-05-23T07:29:55;14.00;1.00
2973;DHT22;1496;51.404;7.232;2023-05-23T07:32:22;14.10;1.00
2973;DHT22;1496;51.404;7.232;2023-05-23T07:34:49;14.10;1.00
2973;DHT22;1496;51.404;7.232;2023-05-23T07:37:16;14.20;1.00
2973;DHT22;1496;51.404;7.232;2023-05-23T07:39:45;14.10;1.00
2973;DHT22;1496;51.404;7.232;2023-05-23T07:42:11;14.10;1.00
2973;DHT22;1496;51.404;7.232;2023-05-23T07:44:40;14.10;1.00
2973;DHT22;1496;51.404;7.232;2023-05-23T07:47:09;14.00;1.00
2973;DHT22;1496;51.404;7.232;2023-05-23T07:49:36;14.10;1.00
2973;DHT22;1496;51.404;7.232;2023-05-23T07:52:03;14.20;1.00
2973;DHT22;1496;51.404;7.232;2023-05-23T07:54:33;14.20;1.00
2973;DHT22;1496;51.404;7.232;2023-05-23T07:57:02;14.30;1.00
2973;DHT22;1496;51.404;7.232;2023-05-23T07:59:29;14.30;1.00
2973;DHT22;1496;51.404;7.232;2023-05-23T08:01:56;14.20;1.00
2973;DHT22;1496;51.404;7.232;2023-05-23T08:04:25;14.20;1.00
2973;DHT22;1496;51.404;7.232;2023-05-23T08:06:53;14.20;1.00
2973;DHT22;1496;51.404;7.232;2023-05-23T08:09:25;14.20;1.00
2973;DHT22;1496;51.404;7.232;2023-05-23T08:11:55;14.10;1.00
2973;DHT22;1496;51.404;7.232;2023-05-23T08:14:23;14.20;1.00
2973;DHT22;1496;51.404;7.232;2023-05-23T08:17:07;14.30;1.00
2973;DHT22;1496;51.404;7.232;2023-05-23T08:19:33;14.20;1.00
2973;DHT22;1496;51.404;7.232;2023-05-23T08:22:01;14.10;1.00
2973;DHT22;1496;51.404;7.232;2023-05-23T08:24:30;14.10;1.00
2973;DHT22;1496;51.404;7.232;2023-05-23T08:26:57;14.00;1.00
2973;DHT22;1496;51.404;7.232;2023-05-23T08:29:25;14.00;1.00
2973;DHT22;1496;51.404;7.232;2023-05-23T08:31:54;14.00;1.00
2973;DHT22;1496;51.404;7.232;2023-05-23T08:34:22;14.00;1.00
2973;DHT22;1496;51.404;7.232;2023-05-23T08:36:50;14.20;1.00
2973;DHT22;1496;51.404;7.232;2023-05-23T08:39:20;14.40;1.00
2973;DHT22;1496;51.404;7.232;2023-05-23T08:41:56;14.50;1.00
2973;DHT22;1496;51.404;7.232;2023-05-23T08:44:23;14.40;1.00
2973;DHT22;1496;51.404;7.232;2023-05-23T08:47:00;14.40;1.00
2973;DHT22;1496;51.404;7.232;2023-05-23T08:49:45;14.30;1.00
2973;DHT22;1496;51.404;7.232;2023-05-23T08:52:13;14.30;1.00
2973;DHT22;1496;51.404;7.232;2023-05-23T08:54:47;14.20;1.00
2973;DHT22;1496;51.404;7.232;2023-05-23T08:57:14;14.20;1.00
2973;DHT22;1496;51.404;7.232;2023-05-23T08:59:50;14.20;1.00
2973;DHT22;1496;51.404;7.232;2023-05-23T09:02:18;13.90;1.00
2973;DHT22;1496;51.404;7.232;2023-05-23T09:04:47;13.70;1.00
2973;DHT22;1496;51.404;7.232;2023-05-23T09:07:25;13.50;1.00
2973;DHT22;1496;51.404;7.232;2023-05-23T09:09:53;13.50;1.00
2973;DHT22;1496;51.404;7.232;2023-05-23T09:12:19;13.50;1.00
2973;DHT22;1496;51.404;7.232;2023-05-23T09:14:51;13.40;1.00
2973;DHT22;1496;51.404;7.232;2023-05-23T09:17:19;13.60;7.40
2973;DHT22;1496;51.404;7.232;2023-05-23T09:19:47;13.60;5.60
2973;DHT22;1496;51.404;7.232;2023-05-23T09:22:34;13.50;1.00
2973;DHT22;1496;51.404;7.232;2023-05-23T09:25:07;13.50;1.00
2973;DHT22;1496;51.404;7.232;2023-05-23T09:27:38;13.50;1.00
2973;DHT22;1496;51.404;7.232;2023-05-23T09:30:09;13.60;1.00
2973;DHT22;1496;51.404;7.232;2023-05-23T09:32:36;13.50;1.00
2973;DHT22;1496;51.404;7.232;2023-05-23T09:35:06;13.60;1.00
2973;DHT22;1496;51.404;7.232;2023-05-23T09:37:44;13.60;1.00
2973;DHT22;1496;51.404;7.232;2023-05-23T09:40:13;13.70;1.00
2973;DHT22;1496;51.404;7.232;2023-05-23T09:42:49;13.60;1.00
2973;DHT22;1496;51.404;7.232;2023-05-23T09:45:17;13.70;1.00
2973;DHT22;1496;51.404;7.232;2023-05-23T09:47:53;13.70;1.00
2973;DHT22;1496;51.404;7.232;2023-05-23T09:50:23;13.70;1.00
2973;DHT22;1496;51.404;7.232;2023-05-23T09:52:50;13.60;1.00
2973;DHT22;1496;51.404;7.232;2023-05-23T09:55:19;13.70;1.00
2973;DHT22;1496;51.404;7.232;2023-05-23T09:57:52;13.70;1.00
2973;DHT22;1496;51.404;7.232;2023-05-23T10:00:21;13.70;1.00
2973;DHT22;1496;51.404;7.232;2023-05-23T10:03:44;13.70;1.00
2973;DHT22;1496;51.404;7.232;2023-05-23T10:06:40;13.60;1.00
2973;DHT22;1496;51.404;7.232;2023-05-23T10:09:16;13.50;1.00
2973;DHT22;1496;51.404;7.232;2023-05-23T10:14:54;13.50;1.00
2973;DHT22;1496;51.404;7.232;2023-05-23T10:20:03;13.50;1.00
2973;DHT22;1496;51.404;7.232;2023-05-23T10:22:37;13.60;1.00
2973;DHT22;1496;51.404;7.232;2023-05-23T10:25:05;13.60;1.00
2973;DHT22;1496;51.404;7.232;2023-05-23T10:27:35;13.50;1.00
2973;DHT22;1496;51.404;7.232;2023-05-23T10:30:02;13.40;1.00
2973;DHT22;1496;51.404;7.232;2023-05-23T10:32:31;13.40;1.00
2973;DHT22;1496;51.404;7.232;2023-05-23T10:35:15;13.40;1.00
2973;DHT22;1496;51.404;7.232;2023-05-23T10:40:57;13.10;1.00
2973;DHT22;1496;51.404;7.232;2023-05-23T10:46:15;12.70;1.00
2973;DHT22;1496;51.404;7.232;2023-05-23T10:48:42;12.80;1.00
2973;DHT22;1496;51.404;7.232;2023-05-23T10:51:11;12.90;1.00
2973;DHT22;1496;51.404;7.232;2023-05-23T10:53:41;12.90;1.00
2973;DHT22;1496;51.404;7.232;2023-05-23T10:56:17;12.90;1.00
2973;DHT22;1496;51.404;7.232;2023-05-23T10:58:54;13.00;1.00
2973;DHT22;1496;51.404;7.232;2023-05-23T11:01:22;12.90;1.00
2973;DHT22;1496;51.404;7.232;2023-05-23T11:03:51;13.00;1.00
2973;DHT22;1496;51.404;7.232;2023-05-23T11:06:38;13.20;1.00
2973;DHT22;1496;51.404;7.232;2023-05-23T11:11:54;13.50;1.00
2973;DHT22;1496;51.404;7.232;2023-05-23T11:17:23;14.00;1.00
2973;DHT22;1496;51.404;7.232;2023-05-23T11:20:04;14.00;1.00
2973;DHT22;1496;51.404;7.232;2023-05-23T11:22:32;14.20;1.00
2973;DHT22;1496;51.404;7.232;2023-05-23T11:25:00;14.10;1.00
2973;DHT22;1496;51.404;7.232;2023-05-23T11:27:38;14.10;1.00
2973;DHT22;1496;51.404;7.232;2023-05-23T11:30:11;14.10;1.00
2973;DHT22;1496;51.404;7.232;2023-05-23T11:32:52;14.10;1.00
2973;DHT22;1496;51.404;7.232;2023-05-23T11:35:20;14.20;1.00
2973;DHT22;1496;51.404;7.232;2023-05-23T11:37:49;14.30;1.00
2973;DHT22;1496;51.404;7.232;2023-05-23T11:40:33;14.30;1.00
2973;DHT22;1496;51.404;7.232;2023-05-23T11:43:06;14.40;1.00
2973;DHT22;1496;51.404;7.232;2023-05-23T11:45:37;14.50;1.00
2973;DHT22;1496;51.404;7.232;2023-05-23T11:48:08;14.40;1.00
2973;DHT22;1496;51.404;7.232;2023-05-23T11:50:48;14.30;1.00
2973;DHT22;1496;51.404;7.232;2023-05-23T11:53:16;14.20;1.00
2973;DHT22;1496;51.404;7.232;2023-05-23T11:55:56;14.00;1.00
2973;DHT22;1496;51.404;7.232;2023-05-23T11:58:29;14.00;1.00
2973;DHT22;1496;51.404;7.232;2023-05-23T12:03:28;13.90;1.00
2973;DHT22;1496;51.404;7.232;2023-05-23T12:05:57;14.00;1.00
2973;DHT22;1496;51.404;7.232;2023-05-23T12:08:25;14.10;1.00
2973;DHT22;1496;51.404;7.232;2023-05-23T12:10:59;14.00;1.00
2973;DHT22;1496;51.404;7.232;2023-05-23T12:13:30;14.00;1.00
2973;DHT22;1496;51.404;7.232;2023-05-23T12:16:01;14.10;1.00
2973;DHT22;1496;51.404;7.232;2023-05-23T12:18:29;14.10;1.00
2973;DHT22;1496;51.404;7.232;2023-05-23T12:21:02;14.10;1.00
2973;DHT22;1496;51.404;7.232;2023-05-23T12:23:32;14.10;1.00
2973;DHT22;1496;51.404;7.232;2023-05-23T12:26:00;14.00;1.00
2973;DHT22;1496;51.404;7.232;2023-05-23T12:28:42;14.10;1.00
2973;DHT22;1496;51.404;7.232;2023-05-23T12:31:16;14.30;1.00
2973;DHT22;1496;51.404;7.232;2023-05-23T12:33:45;14.40;1.00
2973;DHT22;1496;51.404;7.232;2023-05-23T12:36:30;14.90;1.00
2973;DHT22;1496;51.404;7.232;2023-05-23T12:39:04;15.30;1.00
2973;DHT22;1496;51.404;7.232;2023-05-23T12:41:34;15.60;1.00
2973;DHT22;1496;51.404;7.232;2023-05-23T12:44:02;15.90;1.00
2973;DHT22;1496;51.404;7.232;2023-05-23T12:46:30;16.10;1.00
2973;DHT22;1496;51.404;7.232;2023-05-23T12:48:57;16.20;1.00
2973;DHT22;1496;51.404;7.232;2023-05-23T12:51:27;16.30;1.00
2973;DHT22;1496;51.404;7.232;2023-05-23T12:53:53;16.00;1.00
2973;DHT22;1496;51.404;7.232;2023-05-23T12:56:20;16.00;1.00
2973;DHT22;1496;51.404;7.232;2023-05-23T12:58:47;15.90;1.00
2973;DHT22;1496;51.404;7.232;2023-05-23T13:01:14;16.00;1.00
2973;DHT22;1496;51.404;7.232;2023-05-23T13:03:41;15.90;1.00
2973;DHT22;1496;51.404;7.232;2023-05-23T13:06:08;15.80;1.00
2973;DHT22;1496;51.404;7.232;2023-05-23T13:08:35;16.20;1.00
2973;DHT22;1496;51.404;7.232;2023-05-23T13:11:03;16.30;1.00
2973;DHT22;1496;51.404;7.232;2023-05-23T13:13:30;16.20;1.00
2973;DHT22;1496;51.404;7.232;2023-05-23T13:15:59;16.30;1.00
2973;DHT22;1496;51.404;7.232;2023-05-23T13:18:26;16.50;1.00
2973;DHT22;1496;51.404;7.232;2023-05-23T13:20:52;16.60;1.00
2973;DHT22;1496;51.404;7.232;2023-05-23T13:23:20;16.80;1.00
2973;DHT22;1496;51.404;7.232;2023-05-23T13:25:47;16.80;1.00
2973;DHT22;1496;51.404;7.232;2023-05-23T13:28:16;16.50;1.00
2973;DHT22;1496;51.404;7.232;2023-05-23T13:30:43;16.60;1.00
2973;DHT22;1496;51.404;7.232;2023-05-23T13:33:09;16.80;1.00
2973;DHT22;1496;51.404;7.232;2023-05-23T13:35:37;16.80;1.00
2973;DHT22;1496;51.404;7.232;2023-05-23T13:38:03;16.60;1.00
2973;DHT22;1496;51.404;7.232;2023-05-23T13:40:30;16.70;1.00
2973;DHT22;1496;51.404;7.232;2023-05-23T13:42:58;16.80;1.00
2973;DHT22;1496;51.404;7.232;2023-05-23T13:45:24;16.80;1.00
2973;DHT22;1496;51.404;7.232;2023-05-23T13:47:51;17.10;1.00
2973;DHT22;1496;51.404;7.232;2023-05-23T13:50:19;17.30;1.00
2973;DHT22;1496;51.404;7.232;2023-05-23T13:52:46;17.20;1.00
2973;DHT22;1496;51.404;7.232;2023-05-23T13:55:13;17.00;1.00
2973;DHT22;1496;51.404;7.232;2023-05-23T13:57:42;17.00;1.00
2973;DHT22;1496;51.404;7.232;2023-05-23T14:00:11;17.00;1.00
2973;DHT22;1496;51.404;7.232;2023-05-23T14:02:38;16.80;1.00
2973;DHT22;1496;51.404;7.232;2023-05-23T14:05:05;16.70;1.00
2973;DHT22;1496;51.404;7.232;2023-05-23T14:07:32;16.80;1.00
2973;DHT22;1496;51.404;7.232;2023-05-23T14:09:58;16.90;1.00
2973;DHT22;1496;51.404;7.232;2023-05-23T14:12:25;17.00;1.00
2973;DHT22;1496;51.404;7.232;2023-05-23T14:14:51;17.00;1.00
2973;DHT22;1496;51.404;7.232;2023-05-23T14:17:18;17.20;1.00
2973;DHT22;1496;51.404;7.232;2023-05-23T14:19:45;17.30;1.00
2973;DHT22;1496;51.404;7.232;2023-05-23T14:22:12;17.30;1.00
2973;DHT22;1496;51.404;7.232;2023-05-23T14:24:39;17.10;1.00
2973;DHT22;1496;51.404;7.232;2023-05-23T14:27:06;17.00;1.00
2973;DHT22;1496;51.404;7.232;2023-05-23T14:29:33;16.80;1.00
2973;DHT22;1496;51.404;7.232;2023-05-23T14:32:02;16.70;1.00
2973;DHT22;1496;51.404;7.232;2023-05-23T14:34:29;16.50;1.00
2973;DHT22;1496;51.404;7.232;2023-05-23T14:36:57;16.50;1.00
2973;DHT22;1496;51.404;7.232;2023-05-23T14:39:24;16.60;1.00
2973;DHT22;1496;51.404;7.232;2023-05-23T14:41:51;16.70;1.00
2973;DHT22;1496;51.404;7.232;2023-05-23T14:44:18;16.90;1.00
2973;DHT22;1496;51.404;7.232;2023-05-23T14:46:44;16.90;1.00
2973;DHT22;1496;51.404;7.232;2023-05-23T14:49:15;16.80;1.00
2973;DHT22;1496;51.404;7.232;2023-05-23T14:51:43;16.60;1.00
2973;DHT22;1496;51.404;7.232;2023-05-23T14:54:10;16.60;1.00
2973;DHT22;1496;51.404;7.232;2023-05-23T14:56:37;16.70;1.00
2973;DHT22;1496;51.404;7.232;2023-05-23T14:59:05;16.70;1.00
2973;DHT22;1496;51.404;7.232;2023-05-23T15:01:32;16.80;1.00
2973;DHT22;1496;51.404;7.232;2023-05-23T15:03:58;16.60;1.00
2973;DHT22;1496;51.404;7.232;2023-05-23T15:06:25;16.50;1.00
2973;DHT22;1496;51.404;7.232;2023-05-23T15:08:52;16.40;1.00
2973;DHT22;1496;51.404;7.232;2023-05-23T15:11:18;16.20;1.00
2973;DHT22;1496;51.404;7.232;2023-05-23T15:13:46;16.20;1.00
2973;DHT22;1496;51.404;7.232;2023-05-23T15:16:13;16.20;1.00
2973;DHT22;1496;51.404;7.232;2023-05-23T15:18:39;16.10;1.00
2973;DHT22;1496;51.404;7.232;2023-05-23T15:21:07;16.10;1.00
2973;DHT22;1496;51.404;7.232;2023-05-23T15:23:35;16.00;1.00
2973;DHT22;1496;51.404;7.232;2023-05-23T15:26:02;16.00;1.00
2973;DHT22;1496;51.404;7.232;2023-05-23T15:28:28;15.90;1.00
2973;DHT22;1496;51.404;7.232;2023-05-23T15:30:56;15.80;1.00
2973;DHT22;1496;51.404;7.232;2023-05-23T15:33:24;15.70;1.00
2973;DHT22;1496;51.404;7.232;2023-05-23T15:35:50;15.80;1.00
2973;DHT22;1496;51.404;7.232;2023-05-23T15:38:18;15.80;1.00
2973;DHT22;1496;51.404;7.232;2023-05-23T15:40:45;15.80;1.00
2973;DHT22;1496;51.404;7.232;2023-05-23T15:43:15;15.90;1.00
2973;DHT22;1496;51.404;7.232;2023-05-23T15:45:41;15.90;1.00
2973;DHT22;1496;51.404;7.232;2023-05-23T15:48:08;15.80;1.00
2973;DHT22;1496;51.404;7.232;2023-05-23T15:50:35;15.70;1.00
2973;DHT22;1496;51.404;7.232;2023-05-23T15:53:02;15.50;1.00
2973;DHT22;1496;51.404;7.232;2023-05-23T15:55:29;15.60;1.00
2973;DHT22;1496;51.404;7.232;2023-05-23T15:57:56;15.60;1.00
2973;DHT22;1496;51.404;7.232;2023-05-23T16:00:23;15.50;1.00
2973;DHT22;1496;51.404;7.232;2023-05-23T16:02:51;15.50;1.00
2973;DHT22;1496;51.404;7.232;2023-05-23T16:05:17;15.50;1.00
2973;DHT22;1496;51.404;7.232;2023-05-23T16:07:44;15.40;1.00
2973;DHT22;1496;51.404;7.232;2023-05-23T16:10:11;15.50;1.00
2973;DHT22;1496;51.404;7.232;2023-05-23T16:12:39;15.50;1.00
2973;DHT22;1496;51.404;7.232;2023-05-23T16:15:06;15.70;1.00
2973;DHT22;1496;51.404;7.232;2023-05-23T16:17:33;15.60;1.00
2973;DHT22;1496;51.404;7.232;2023-05-23T16:20:00;15.60;1.00
2973;DHT22;1496;51.404;7.232;2023-05-23T16:22:29;15.60;1.00
2973;DHT22;1496;51.404;7.232;2023-05-23T16:24:56;15.60;1.00
2973;DHT22;1496;51.404;7.232;2023-05-23T16:27:23;15.50;1.00
2973;DHT22;1496;51.404;7.232;2023-05-23T16:29:50;15.50;1.00
2973;DHT22;1496;51.404;7.232;2023-05-23T16:32:17;15.40;1.00
2973;DHT22;1496;51.404;7.232;2023-05-23T16:34:45;15.30;1.00
2973;DHT22;1496;51.404;7.232;2023-05-23T16:37:14;15.30;1.00
2973;DHT22;1496;51.404;7.232;2023-05-23T16:39:40;15.40;1.00
2973;DHT22;1496;51.404;7.232;2023-05-23T16:42:07;15.40;1.00
2973;DHT22;1496;51.404;7.232;2023-05-23T16:44:35;15.40;1.00
2973;DHT22;1496;51.404;7.232;2023-05-23T16:47:01;15.50;1.00
2973;DHT22;1496;51.404;7.232;2023-05-23T16:49:29;15.50;1.00
2973;DHT22;1496;51.404;7.232;2023-05-23T16:51:55;15.50;1.00